sensor_id;sensor_type;location;lat;lon;timestamp;P1;durP1;ratioP1;P2;durP2;ratioP2
12725;SDS011;6427;49.754;6.106;2023-12-22T00:00:43;9.80;;;1.43;;
12725;SDS011;6427;49.754;6.106;2023-12-22T00:03:11;5.83;;;1.60;;
12725;SDS011;6427;49.754;6.106;2023-12-22T00:05:39;8.43;;;1.70;;
12725;SDS011;6427;49.754;6.106;2023-12-22T00:08:06;7.47;;;1.58;;
12725;SDS011;6427;49.754;6.106;2023-12-22T00:10:34;4.43;;;1.30;;
12725;SDS011;6427;49.754;6.106;2023-12-22T00:13:01;4.23;;;1.30;;
12725;SDS011;6427;49.754;6.106;2023-12-22T00:15:29;8.87;;;1.57;;
12725;SDS011;6427;49.754;6.106;2023-12-22T00:17:57;6.33;;;1.40;;
12725;SDS011;6427;49.754;6.106;2023-12-22T00:20:24;10.00;;;1.97;;
12725;SDS011;6427;49.754;6.106;2023-12-22T00:22:52;6.70;;;1.30;;
12725;SDS011;6427;49.754;6.106;2023-12-22T00:25:20;7.85;;;1.80;;
12725;SDS011;6427;49.754;6.106;2023-12-22T00:27:48;7.57;;;1.97;;
12725;SDS011;6427;49.754;6.106;2023-12-22T00:30:15;8.37;;;1.87;;
12725;SDS011;6427;49.754;6.106;2023-12-22T00:32:44;14.43;;;2.30;;
12725;SDS011;6427;49.754;6.106;2023-12-22T00:35:11;5.63;;;1.30;;
12725;SDS011;6427;49.754;6.106;2023-12-22T00:37:39;8.10;;;1.40;;
12725;SDS011;6427;49.754;6.106;2023-12-22T00:40:06;8.77;;;1.80;;
12725;SDS011;6427;49.754;6.106;2023-12-22T00:42:34;5.60;;;1.60;;
12725;SDS011;6427;49.754;6.106;2023-12-22T00:45:02;8.80;;;2.00;;
12725;SDS011;6427;49.754;6.106;2023-12-22T00:47:29;9.27;;;1.57;;
12725;SDS011;6427;49.754;6.106;2023-12-22T00:49:57;6.80;;;0.93;;
12725;SDS011;6427;49.754;6.106;2023-12-22T00:52:24;11.10;;;1.80;;
12725;SDS011;6427;49.754;6.106;2023-12-22T00:54:52;10.05;;;2.00;;
12725;SDS011;6427;49.754;6.106;2023-12-22T00:57:19;8.43;;;1.77;;
12725;SDS011;6427;49.754;6.106;2023-12-22T00:59:47;9.70;;;1.60;;
12725;SDS011;6427;49.754;6.106;2023-12-22T01:02:15;7.27;;;1.40;;
12725;SDS011;6427;49.754;6.106;2023-12-22T01:04:43;9.18;;;1.85;;
12725;SDS011;6427;49.754;6.106;2023-12-22T01:07:11;7.40;;;1.73;;
12725;SDS011;6427;49.754;6.106;2023-12-22T01:09:38;8.97;;;1.60;;
12725;SDS011;6427;49.754;6.106;2023-12-22T01:12:06;8.17;;;1.70;;
12725;SDS011;6427;49.754;6.106;2023-12-22T01:14:34;8.13;;;1.60;;
12725;SDS011;6427;49.754;6.106;2023-12-22T01:17:02;10.20;;;1.95;;
12725;SDS011;6427;49.754;6.106;2023-12-22T01:19:31;5.97;;;1.80;;
12725;SDS011;6427;49.754;6.106;2023-12-22T01:21:58;5.90;;;1.50;;
12725;SDS011;6427;49.754;6.106;2023-12-22T01:24:27;11.55;;;2.10;;
12725;SDS011;6427;49.754;6.106;2023-12-22T01:26:54;10.87;;;2.43;;
12725;SDS011;6427;49.754;6.106;2023-12-22T01:29:22;9.57;;;2.28;;
12725;SDS011;6427;49.754;6.106;2023-12-22T01:31:50;11.23;;;1.87;;
12725;SDS011;6427;49.754;6.106;2023-12-22T01:34:18;6.30;;;1.63;;
12725;SDS011;6427;49.754;6.106;2023-12-22T01:36:45;8.07;;;1.40;;
12725;SDS011;6427;49.754;6.106;2023-12-22T01:39:13;16.27;;;2.13;;
12725;SDS011;6427;49.754;6.106;2023-12-22T01:41:41;6.67;;;1.37;;
12725;SDS011;6427;49.754;6.106;2023-12-22T01:44:08;10.20;;;1.70;;
12725;SDS011;6427;49.754;6.106;2023-12-22T01:46:36;6.30;;;1.30;;
12725;SDS011;6427;49.754;6.106;2023-12-22T01:49:03;9.30;;;1.97;;
12725;SDS011;6427;49.754;6.106;2023-12-22T01:51:32;8.65;;;2.17;;
12725;SDS011;6427;49.754;6.106;2023-12-22T01:54:02;8.63;;;1.70;;
12725;SDS011;6427;49.754;6.106;2023-12-22T01:56:30;3.13;;;0.90;;
12725;SDS011;6427;49.754;6.106;2023-12-22T01:58:58;5.97;;;1.47;;
12725;SDS011;6427;49.754;6.106;2023-12-22T02:01:26;7.20;;;1.30;;
12725;SDS011;6427;49.754;6.106;2023-12-22T02:03:53;8.27;;;0.97;;
12725;SDS011;6427;49.754;6.106;2023-12-22T02:06:21;5.60;;;0.90;;
12725;SDS011;6427;49.754;6.106;2023-12-22T02:08:49;3.35;;;0.90;;
12725;SDS011;6427;49.754;6.106;2023-12-22T02:11:17;3.80;;;0.97;;
12725;SDS011;6427;49.754;6.106;2023-12-22T02:13:44;4.77;;;0.73;;
12725;SDS011;6427;49.754;6.106;2023-12-22T02:18:58;3.63;;;0.80;;
12725;SDS011;6427;49.754;6.106;2023-12-22T02:21:26;2.53;;;0.60;;
12725;SDS011;6427;49.754;6.106;2023-12-22T02:23:54;4.03;;;0.80;;
12725;SDS011;6427;49.754;6.106;2023-12-22T02:26:28;4.33;;;0.80;;
12725;SDS011;6427;49.754;6.106;2023-12-22T02:28:55;1.23;;;0.50;;
12725;SDS011;6427;49.754;6.106;2023-12-22T02:31:27;4.83;;;1.10;;
12725;SDS011;6427;49.754;6.106;2023-12-22T02:33:51;4.07;;;0.80;;
12725;SDS011;6427;49.754;6.106;2023-12-22T02:36:18;2.70;;;1.00;;
12725;SDS011;6427;49.754;6.106;2023-12-22T02:38:46;9.40;;;1.27;;
12725;SDS011;6427;49.754;6.106;2023-12-22T02:41:13;4.23;;;0.87;;
12725;SDS011;6427;49.754;6.106;2023-12-22T02:43:41;4.40;;;0.90;;
12725;SDS011;6427;49.754;6.106;2023-12-22T02:46:14;6.27;;;1.47;;
12725;SDS011;6427;49.754;6.106;2023-12-22T02:48:42;6.10;;;1.37;;
12725;SDS011;6427;49.754;6.106;2023-12-22T02:51:10;8.50;;;1.40;;
12725;SDS011;6427;49.754;6.106;2023-12-22T02:53:37;9.23;;;1.73;;
12725;SDS011;6427;49.754;6.106;2023-12-22T02:56:05;5.53;;;1.33;;
12725;SDS011;6427;49.754;6.106;2023-12-22T02:58:33;10.80;;;1.80;;
12725;SDS011;6427;49.754;6.106;2023-12-22T03:01:01;7.50;;;1.67;;
12725;SDS011;6427;49.754;6.106;2023-12-22T03:03:28;11.80;;;2.10;;
12725;SDS011;6427;49.754;6.106;2023-12-22T03:05:56;6.67;;;1.40;;
12725;SDS011;6427;49.754;6.106;2023-12-22T03:08:24;13.30;;;2.00;;
12725;SDS011;6427;49.754;6.106;2023-12-22T03:10:51;7.20;;;1.83;;
12725;SDS011;6427;49.754;6.106;2023-12-22T03:13:20;9.90;;;1.95;;
12725;SDS011;6427;49.754;6.106;2023-12-22T03:15:47;8.73;;;1.40;;
12725;SDS011;6427;49.754;6.106;2023-12-22T03:18:15;9.37;;;2.13;;
12725;SDS011;6427;49.754;6.106;2023-12-22T03:20:42;13.62;;;2.90;;
12725;SDS011;6427;49.754;6.106;2023-12-22T03:23:10;9.93;;;1.93;;
12725;SDS011;6427;49.754;6.106;2023-12-22T03:25:37;11.17;;;2.03;;
12725;SDS011;6427;49.754;6.106;2023-12-22T03:28:05;7.60;;;1.80;;
12725;SDS011;6427;49.754;6.106;2023-12-22T03:30:33;10.55;;;2.67;;
12725;SDS011;6427;49.754;6.106;2023-12-22T03:33:00;12.25;;;2.70;;
12725;SDS011;6427;49.754;6.106;2023-12-22T03:35:28;6.60;;;1.97;;
12725;SDS011;6427;49.754;6.106;2023-12-22T03:37:56;10.30;;;2.40;;
12725;SDS011;6427;49.754;6.106;2023-12-22T03:40:24;12.63;;;1.70;;
12725;SDS011;6427;49.754;6.106;2023-12-22T03:42:51;10.63;;;2.28;;
12725;SDS011;6427;49.754;6.106;2023-12-22T03:45:19;7.47;;;2.10;;
12725;SDS011;6427;49.754;6.106;2023-12-22T03:47:46;7.47;;;2.10;;
12725;SDS011;6427;49.754;6.106;2023-12-22T03:50:14;11.30;;;2.27;;
12725;SDS011;6427;49.754;6.106;2023-12-22T03:52:42;10.63;;;2.17;;
12725;SDS011;6427;49.754;6.106;2023-12-22T03:55:10;14.00;;;1.90;;
12725;SDS011;6427;49.754;6.106;2023-12-22T03:57:38;10.57;;;2.17;;
12725;SDS011;6427;49.754;6.106;2023-12-22T04:00:05;8.87;;;1.73;;
12725;SDS011;6427;49.754;6.106;2023-12-22T04:02:34;6.83;;;1.70;;
12725;SDS011;6427;49.754;6.106;2023-12-22T04:05:02;9.17;;;2.07;;
12725;SDS011;6427;49.754;6.106;2023-12-22T04:07:30;6.90;;;1.90;;
12725;SDS011;6427;49.754;6.106;2023-12-22T04:09:57;7.00;;;1.37;;
12725;SDS011;6427;49.754;6.106;2023-12-22T04:12:26;11.60;;;1.47;;
12725;SDS011;6427;49.754;6.106;2023-12-22T04:14:53;3.63;;;1.00;;
12725;SDS011;6427;49.754;6.106;2023-12-22T04:17:22;5.80;;;1.20;;
12725;SDS011;6427;49.754;6.106;2023-12-22T04:19:49;5.77;;;0.93;;
12725;SDS011;6427;49.754;6.106;2023-12-22T04:22:17;11.07;;;1.97;;
12725;SDS011;6427;49.754;6.106;2023-12-22T04:24:45;6.27;;;1.20;;
12725;SDS011;6427;49.754;6.106;2023-12-22T04:27:13;0.90;;;0.40;;
12725;SDS011;6427;49.754;6.106;2023-12-22T04:29:40;4.87;;;0.90;;
12725;SDS011;6427;49.754;6.106;2023-12-22T04:32:08;2.67;;;0.97;;
12725;SDS011;6427;49.754;6.106;2023-12-22T04:34:35;3.60;;;0.40;;
12725;SDS011;6427;49.754;6.106;2023-12-22T04:37:03;2.63;;;0.57;;
12725;SDS011;6427;49.754;6.106;2023-12-22T04:39:31;5.33;;;0.70;;
12725;SDS011;6427;49.754;6.106;2023-12-22T04:41:59;5.75;;;0.90;;
12725;SDS011;6427;49.754;6.106;2023-12-22T04:44:26;7.37;;;0.90;;
12725;SDS011;6427;49.754;6.106;2023-12-22T04:46:54;2.47;;;0.90;;
12725;SDS011;6427;49.754;6.106;2023-12-22T04:49:22;5.83;;;1.00;;
12725;SDS011;6427;49.754;6.106;2023-12-22T04:51:50;3.33;;;0.80;;
12725;SDS011;6427;49.754;6.106;2023-12-22T04:54:18;6.70;;;0.83;;
12725;SDS011;6427;49.754;6.106;2023-12-22T04:56:45;1.83;;;0.70;;
12725;SDS011;6427;49.754;6.106;2023-12-22T04:59:13;3.47;;;0.83;;
12725;SDS011;6427;49.754;6.106;2023-12-22T05:01:40;6.23;;;0.83;;
12725;SDS011;6427;49.754;6.106;2023-12-22T05:04:09;3.47;;;0.87;;
12725;SDS011;6427;49.754;6.106;2023-12-22T05:06:36;2.73;;;0.80;;
12725;SDS011;6427;49.754;6.106;2023-12-22T05:09:04;5.23;;;0.83;;
12725;SDS011;6427;49.754;6.106;2023-12-22T05:11:31;2.63;;;0.93;;
12725;SDS011;6427;49.754;6.106;2023-12-22T05:13:59;7.17;;;1.67;;
12725;SDS011;6427;49.754;6.106;2023-12-22T05:16:27;8.37;;;1.33;;
12725;SDS011;6427;49.754;6.106;2023-12-22T05:18:54;8.07;;;1.10;;
12725;SDS011;6427;49.754;6.106;2023-12-22T05:21:22;2.93;;;1.00;;
12725;SDS011;6427;49.754;6.106;2023-12-22T05:23:49;4.90;;;0.80;;
12725;SDS011;6427;49.754;6.106;2023-12-22T05:26:17;9.47;;;1.30;;
12725;SDS011;6427;49.754;6.106;2023-12-22T05:28:45;7.50;;;0.97;;
12725;SDS011;6427;49.754;6.106;2023-12-22T05:31:13;2.47;;;0.80;;
12725;SDS011;6427;49.754;6.106;2023-12-22T05:33:41;2.07;;;0.80;;
12725;SDS011;6427;49.754;6.106;2023-12-22T05:36:08;6.10;;;1.10;;
12725;SDS011;6427;49.754;6.106;2023-12-22T05:38:37;5.53;;;1.00;;
12725;SDS011;6427;49.754;6.106;2023-12-22T05:41:04;6.47;;;0.70;;
12725;SDS011;6427;49.754;6.106;2023-12-22T05:43:35;3.23;;;0.87;;
12725;SDS011;6427;49.754;6.106;2023-12-22T05:46:02;5.00;;;0.80;;
12725;SDS011;6427;49.754;6.106;2023-12-22T05:48:30;4.93;;;1.43;;
12725;SDS011;6427;49.754;6.106;2023-12-22T05:50:58;5.00;;;1.30;;
12725;SDS011;6427;49.754;6.106;2023-12-22T05:53:25;6.87;;;0.70;;
12725;SDS011;6427;49.754;6.106;2023-12-22T05:55:53;6.00;;;1.27;;
12725;SDS011;6427;49.754;6.106;2023-12-22T05:58:20;6.53;;;0.97;;
12725;SDS011;6427;49.754;6.106;2023-12-22T06:00:48;6.00;;;1.00;;
12725;SDS011;6427;49.754;6.106;2023-12-22T06:03:16;5.77;;;1.00;;
12725;SDS011;6427;49.754;6.106;2023-12-22T06:05:44;2.83;;;1.10;;
12725;SDS011;6427;49.754;6.106;2023-12-22T06:08:12;9.70;;;1.37;;
12725;SDS011;6427;49.754;6.106;2023-12-22T06:10:41;4.70;;;1.33;;
12725;SDS011;6427;49.754;6.106;2023-12-22T06:13:08;9.23;;;2.12;;
12725;SDS011;6427;49.754;6.106;2023-12-22T06:15:37;6.47;;;1.70;;
12725;SDS011;6427;49.754;6.106;2023-12-22T06:18:04;9.93;;;1.60;;
12725;SDS011;6427;49.754;6.106;2023-12-22T06:20:32;11.30;;;2.00;;
12725;SDS011;6427;49.754;6.106;2023-12-22T06:22:59;10.73;;;2.30;;
12725;SDS011;6427;49.754;6.106;2023-12-22T06:25:28;14.60;;;3.07;;
12725;SDS011;6427;49.754;6.106;2023-12-22T06:27:55;13.07;;;2.30;;
12725;SDS011;6427;49.754;6.106;2023-12-22T06:30:23;12.37;;;3.00;;
12725;SDS011;6427;49.754;6.106;2023-12-22T06:32:51;12.93;;;2.43;;
12725;SDS011;6427;49.754;6.106;2023-12-22T06:35:18;17.40;;;4.07;;
12725;SDS011;6427;49.754;6.106;2023-12-22T06:37:47;14.03;;;2.77;;
12725;SDS011;6427;49.754;6.106;2023-12-22T06:40:15;22.83;;;3.13;;
12725;SDS011;6427;49.754;6.106;2023-12-22T06:42:43;21.47;;;3.60;;
12725;SDS011;6427;49.754;6.106;2023-12-22T06:45:10;20.60;;;3.03;;
12725;SDS011;6427;49.754;6.106;2023-12-22T06:47:38;18.33;;;3.43;;
12725;SDS011;6427;49.754;6.106;2023-12-22T06:50:05;22.08;;;4.57;;
12725;SDS011;6427;49.754;6.106;2023-12-22T06:52:33;16.70;;;3.23;;
12725;SDS011;6427;49.754;6.106;2023-12-22T06:55:01;24.17;;;3.83;;
12725;SDS011;6427;49.754;6.106;2023-12-22T06:57:28;23.23;;;3.57;;
12725;SDS011;6427;49.754;6.106;2023-12-22T06:59:56;22.17;;;3.70;;
12725;SDS011;6427;49.754;6.106;2023-12-22T07:02:23;19.47;;;3.70;;
12725;SDS011;6427;49.754;6.106;2023-12-22T07:07:54;18.50;;;3.20;;
12725;SDS011;6427;49.754;6.106;2023-12-22T07:10:22;18.67;;;3.50;;
12725;SDS011;6427;49.754;6.106;2023-12-22T07:12:50;17.60;;;2.90;;
12725;SDS011;6427;49.754;6.106;2023-12-22T07:15:18;22.77;;;3.40;;
12725;SDS011;6427;49.754;6.106;2023-12-22T07:17:46;17.07;;;3.37;;
12725;SDS011;6427;49.754;6.106;2023-12-22T07:20:13;20.67;;;3.63;;
12725;SDS011;6427;49.754;6.106;2023-12-22T07:22:44;20.12;;;4.35;;
12725;SDS011;6427;49.754;6.106;2023-12-22T07:25:09;18.27;;;4.50;;
12725;SDS011;6427;49.754;6.106;2023-12-22T07:27:36;26.40;;;3.60;;
12725;SDS011;6427;49.754;6.106;2023-12-22T07:30:04;20.10;;;4.47;;
12725;SDS011;6427;49.754;6.106;2023-12-22T07:32:32;22.20;;;3.57;;
12725;SDS011;6427;49.754;6.106;2023-12-22T07:35:00;29.13;;;4.30;;
12725;SDS011;6427;49.754;6.106;2023-12-22T07:37:28;20.60;;;3.47;;
12725;SDS011;6427;49.754;6.106;2023-12-22T07:39:55;18.10;;;2.83;;
12725;SDS011;6427;49.754;6.106;2023-12-22T07:42:23;20.47;;;3.53;;
12725;SDS011;6427;49.754;6.106;2023-12-22T07:44:50;23.15;;;4.78;;
12725;SDS011;6427;49.754;6.106;2023-12-22T07:47:18;17.20;;;3.90;;
12725;SDS011;6427;49.754;6.106;2023-12-22T07:49:46;15.57;;;2.80;;
12725;SDS011;6427;49.754;6.106;2023-12-22T07:52:13;14.60;;;3.13;;
12725;SDS011;6427;49.754;6.106;2023-12-22T07:54:41;13.97;;;3.17;;
12725;SDS011;6427;49.754;6.106;2023-12-22T07:57:08;21.45;;;4.10;;
12725;SDS011;6427;49.754;6.106;2023-12-22T07:59:36;19.33;;;4.00;;
12725;SDS011;6427;49.754;6.106;2023-12-22T08:02:04;15.07;;;3.10;;
12725;SDS011;6427;49.754;6.106;2023-12-22T08:04:32;19.83;;;3.83;;
12725;SDS011;6427;49.754;6.106;2023-12-22T08:07:00;22.50;;;3.97;;
12725;SDS011;6427;49.754;6.106;2023-12-22T08:09:27;19.43;;;2.97;;
12725;SDS011;6427;49.754;6.106;2023-12-22T08:11:55;19.37;;;2.83;;
12725;SDS011;6427;49.754;6.106;2023-12-22T08:14:23;15.03;;;3.27;;
12725;SDS011;6427;49.754;6.106;2023-12-22T08:16:50;16.93;;;2.77;;
12725;SDS011;6427;49.754;6.106;2023-12-22T08:19:18;14.93;;;3.50;;
12725;SDS011;6427;49.754;6.106;2023-12-22T08:21:47;14.13;;;3.20;;
12725;SDS011;6427;49.754;6.106;2023-12-22T08:24:14;19.30;;;2.83;;
12725;SDS011;6427;49.754;6.106;2023-12-22T08:26:43;18.58;;;4.03;;
12725;SDS011;6427;49.754;6.106;2023-12-22T08:29:11;15.07;;;2.70;;
12725;SDS011;6427;49.754;6.106;2023-12-22T08:31:40;15.77;;;2.87;;
12725;SDS011;6427;49.754;6.106;2023-12-22T08:34:07;18.70;;;3.20;;
12725;SDS011;6427;49.754;6.106;2023-12-22T08:36:35;16.37;;;3.40;;
12725;SDS011;6427;49.754;6.106;2023-12-22T08:39:03;14.20;;;2.97;;
12725;SDS011;6427;49.754;6.106;2023-12-22T08:41:32;16.08;;;3.40;;
12725;SDS011;6427;49.754;6.106;2023-12-22T08:43:59;18.43;;;3.60;;
12725;SDS011;6427;49.754;6.106;2023-12-22T08:46:27;15.70;;;2.90;;
12725;SDS011;6427;49.754;6.106;2023-12-22T08:48:55;18.57;;;3.87;;
12725;SDS011;6427;49.754;6.106;2023-12-22T08:51:23;18.17;;;3.50;;
12725;SDS011;6427;49.754;6.106;2023-12-22T08:53:51;15.17;;;2.37;;
12725;SDS011;6427;49.754;6.106;2023-12-22T08:56:18;17.97;;;2.80;;
12725;SDS011;6427;49.754;6.106;2023-12-22T08:58:46;13.07;;;2.90;;
12725;SDS011;6427;49.754;6.106;2023-12-22T09:01:14;15.63;;;2.50;;
12725;SDS011;6427;49.754;6.106;2023-12-22T09:03:41;12.77;;;2.53;;
12725;SDS011;6427;49.754;6.106;2023-12-22T09:06:09;15.03;;;2.80;;
12725;SDS011;6427;49.754;6.106;2023-12-22T09:08:36;9.23;;;2.10;;
12725;SDS011;6427;49.754;6.106;2023-12-22T09:11:04;13.40;;;2.13;;
12725;SDS011;6427;49.754;6.106;2023-12-22T09:13:33;8.27;;;1.60;;
12725;SDS011;6427;49.754;6.106;2023-12-22T09:16:00;9.43;;;1.80;;
12725;SDS011;6427;49.754;6.106;2023-12-22T09:18:28;11.53;;;2.03;;
12725;SDS011;6427;49.754;6.106;2023-12-22T09:20:55;12.47;;;1.90;;
12725;SDS011;6427;49.754;6.106;2023-12-22T09:23:23;8.33;;;1.70;;
12725;SDS011;6427;49.754;6.106;2023-12-22T09:25:50;7.73;;;1.40;;
12725;SDS011;6427;49.754;6.106;2023-12-22T09:28:18;7.10;;;1.20;;
12725;SDS011;6427;49.754;6.106;2023-12-22T09:30:45;5.87;;;1.60;;
12725;SDS011;6427;49.754;6.106;2023-12-22T09:33:14;7.03;;;1.60;;
12725;SDS011;6427;49.754;6.106;2023-12-22T09:35:41;3.80;;;1.27;;
12725;SDS011;6427;49.754;6.106;2023-12-22T09:38:09;6.07;;;1.43;;
12725;SDS011;6427;49.754;6.106;2023-12-22T09:40:36;7.50;;;1.27;;
12725;SDS011;6427;49.754;6.106;2023-12-22T09:43:04;6.53;;;0.83;;
12725;SDS011;6427;49.754;6.106;2023-12-22T09:45:35;4.50;;;0.80;;
12725;SDS011;6427;49.754;6.106;2023-12-22T09:47:59;3.50;;;0.87;;
12725;SDS011;6427;49.754;6.106;2023-12-22T09:50:28;3.47;;;0.77;;
12725;SDS011;6427;49.754;6.106;2023-12-22T09:52:55;2.93;;;0.87;;
12725;SDS011;6427;49.754;6.106;2023-12-22T09:55:23;3.23;;;0.60;;
12725;SDS011;6427;49.754;6.106;2023-12-22T09:57:50;6.17;;;0.90;;
12725;SDS011;6427;49.754;6.106;2023-12-22T10:00:18;3.77;;;0.63;;
12725;SDS011;6427;49.754;6.106;2023-12-22T10:02:46;4.90;;;1.60;;
12725;SDS011;6427;49.754;6.106;2023-12-22T10:05:14;5.93;;;0.60;;
12725;SDS011;6427;49.754;6.106;2023-12-22T10:07:41;3.90;;;0.93;;
12725;SDS011;6427;49.754;6.106;2023-12-22T10:10:10;2.97;;;1.33;;
12725;SDS011;6427;49.754;6.106;2023-12-22T10:12:40;4.23;;;0.63;;
12725;SDS011;6427;49.754;6.106;2023-12-22T10:15:08;3.33;;;0.83;;
12725;SDS011;6427;49.754;6.106;2023-12-22T10:17:35;3.47;;;0.63;;
12725;SDS011;6427;49.754;6.106;2023-12-22T10:20:03;2.30;;;0.70;;
12725;SDS011;6427;49.754;6.106;2023-12-22T10:22:31;2.80;;;0.70;;
12725;SDS011;6427;49.754;6.106;2023-12-22T10:24:59;1.90;;;0.60;;
12725;SDS011;6427;49.754;6.106;2023-12-22T10:27:27;1.87;;;0.60;;
12725;SDS011;6427;49.754;6.106;2023-12-22T10:29:56;1.70;;;0.60;;
12725;SDS011;6427;49.754;6.106;2023-12-22T10:32:23;2.70;;;0.70;;
12725;SDS011;6427;49.754;6.106;2023-12-22T10:34:53;2.37;;;0.50;;
12725;SDS011;6427;49.754;6.106;2023-12-22T10:37:22;2.83;;;0.60;;
12725;SDS011;6427;49.754;6.106;2023-12-22T10:39:52;3.77;;;0.50;;
12725;SDS011;6427;49.754;6.106;2023-12-22T10:42:21;1.85;;;0.60;;
12725;SDS011;6427;49.754;6.106;2023-12-22T10:44:48;0.70;;;0.40;;
12725;SDS011;6427;49.754;6.106;2023-12-22T10:47:16;2.40;;;0.50;;
12725;SDS011;6427;49.754;6.106;2023-12-22T10:49:45;0.60;;;0.30;;
12725;SDS011;6427;49.754;6.106;2023-12-22T10:52:15;1.03;;;0.23;;
12725;SDS011;6427;49.754;6.106;2023-12-22T10:54:38;1.63;;;0.70;;
12725;SDS011;6427;49.754;6.106;2023-12-22T10:57:06;0.95;;;0.50;;
12725;SDS011;6427;49.754;6.106;2023-12-22T10:59:34;0.60;;;0.30;;
12725;SDS011;6427;49.754;6.106;2023-12-22T11:02:01;2.33;;;0.20;;
12725;SDS011;6427;49.754;6.106;2023-12-22T11:04:29;2.20;;;0.50;;
12725;SDS011;6427;49.754;6.106;2023-12-22T11:06:57;1.17;;;0.77;;
12725;SDS011;6427;49.754;6.106;2023-12-22T11:09:24;1.80;;;0.40;;
12725;SDS011;6427;49.754;6.106;2023-12-22T11:11:52;1.50;;;0.70;;
12725;SDS011;6427;49.754;6.106;2023-12-22T11:14:19;4.07;;;1.23;;
12725;SDS011;6427;49.754;6.106;2023-12-22T11:16:47;1.57;;;0.37;;
12725;SDS011;6427;49.754;6.106;2023-12-22T11:19:14;0.80;;;0.50;;
12725;SDS011;6427;49.754;6.106;2023-12-22T11:21:42;2.23;;;0.90;;
12725;SDS011;6427;49.754;6.106;2023-12-22T11:24:10;1.20;;;0.63;;
12725;SDS011;6427;49.754;6.106;2023-12-22T11:26:37;0.73;;;0.40;;
12725;SDS011;6427;49.754;6.106;2023-12-22T11:29:05;1.33;;;0.33;;
12725;SDS011;6427;49.754;6.106;2023-12-22T11:31:32;1.70;;;0.60;;
12725;SDS011;6427;49.754;6.106;2023-12-22T11:34:00;2.05;;;0.70;;
12725;SDS011;6427;49.754;6.106;2023-12-22T11:36:27;2.30;;;0.60;;
12725;SDS011;6427;49.754;6.106;2023-12-22T11:38:56;2.17;;;1.23;;
12725;SDS011;6427;49.754;6.106;2023-12-22T11:41:25;2.30;;;0.80;;
12725;SDS011;6427;49.754;6.106;2023-12-22T11:43:52;1.27;;;0.80;;
12725;SDS011;6427;49.754;6.106;2023-12-22T11:46:19;1.70;;;0.70;;
12725;SDS011;6427;49.754;6.106;2023-12-22T11:48:47;3.20;;;1.10;;
12725;SDS011;6427;49.754;6.106;2023-12-22T11:51:15;3.57;;;1.10;;
12725;SDS011;6427;49.754;6.106;2023-12-22T11:53:43;3.33;;;0.93;;
12725;SDS011;6427;49.754;6.106;2023-12-22T11:56:11;2.87;;;0.90;;
12725;SDS011;6427;49.754;6.106;2023-12-22T11:58:40;9.40;;;3.40;;
12725;SDS011;6427;49.754;6.106;2023-12-22T12:01:11;3.27;;;1.60;;
12725;SDS011;6427;49.754;6.106;2023-12-22T12:03:38;2.73;;;1.60;;
12725;SDS011;6427;49.754;6.106;2023-12-22T12:06:14;2.30;;;1.50;;
12725;SDS011;6427;49.754;6.106;2023-12-22T12:08:42;0.90;;;0.50;;
12725;SDS011;6427;49.754;6.106;2023-12-22T12:11:10;3.67;;;1.00;;
12725;SDS011;6427;49.754;6.106;2023-12-22T12:13:41;1.33;;;0.93;;
12725;SDS011;6427;49.754;6.106;2023-12-22T12:16:06;0.43;;;0.43;;
12725;SDS011;6427;49.754;6.106;2023-12-22T12:18:34;2.40;;;0.60;;
12725;SDS011;6427;49.754;6.106;2023-12-22T12:21:02;3.03;;;0.80;;
12725;SDS011;6427;49.754;6.106;2023-12-22T12:23:29;4.13;;;0.50;;
12725;SDS011;6427;49.754;6.106;2023-12-22T12:26:00;1.97;;;1.23;;
12725;SDS011;6427;49.754;6.106;2023-12-22T12:28:30;2.10;;;0.95;;
12725;SDS011;6427;49.754;6.106;2023-12-22T12:30:57;0.83;;;0.47;;
12725;SDS011;6427;49.754;6.106;2023-12-22T12:33:25;3.17;;;0.70;;
12725;SDS011;6427;49.754;6.106;2023-12-22T12:35:56;1.90;;;0.70;;
12725;SDS011;6427;49.754;6.106;2023-12-22T12:38:48;2.93;;;0.57;;
12725;SDS011;6427;49.754;6.106;2023-12-22T12:41:06;2.43;;;0.30;;
12725;SDS011;6427;49.754;6.106;2023-12-22T12:43:34;1.00;;;0.60;;
12725;SDS011;6427;49.754;6.106;2023-12-22T12:46:07;1.50;;;0.40;;
12725;SDS011;6427;49.754;6.106;2023-12-22T12:48:36;0.57;;;0.40;;
12725;SDS011;6427;49.754;6.106;2023-12-22T12:51:04;2.30;;;0.50;;
12725;SDS011;6427;49.754;6.106;2023-12-22T12:53:32;0.67;;;0.30;;
12725;SDS011;6427;49.754;6.106;2023-12-22T12:56:01;3.30;;;0.70;;
12725;SDS011;6427;49.754;6.106;2023-12-22T12:58:29;0.93;;;0.30;;
12725;SDS011;6427;49.754;6.106;2023-12-22T13:01:09;1.80;;;0.37;;
12725;SDS011;6427;49.754;6.106;2023-12-22T13:03:52;0.87;;;0.30;;
12725;SDS011;6427;49.754;6.106;2023-12-22T13:06:20;1.12;;;0.40;;
12725;SDS011;6427;49.754;6.106;2023-12-22T13:08:48;3.37;;;1.00;;
12725;SDS011;6427;49.754;6.106;2023-12-22T13:11:19;0.90;;;0.40;;
12725;SDS011;6427;49.754;6.106;2023-12-22T13:13:43;1.00;;;0.60;;
12725;SDS011;6427;49.754;6.106;2023-12-22T13:16:11;1.48;;;0.57;;
12725;SDS011;6427;49.754;6.106;2023-12-22T13:18:39;1.20;;;0.40;;
12725;SDS011;6427;49.754;6.106;2023-12-22T13:21:06;2.58;;;0.68;;
12725;SDS011;6427;49.754;6.106;2023-12-22T13:23:34;1.47;;;0.50;;
12725;SDS011;6427;49.754;6.106;2023-12-22T13:26:01;1.60;;;0.30;;
12725;SDS011;6427;49.754;6.106;2023-12-22T13:28:29;2.00;;;0.40;;
12725;SDS011;6427;49.754;6.106;2023-12-22T13:30:57;0.93;;;0.40;;
12725;SDS011;6427;49.754;6.106;2023-12-22T13:33:25;0.83;;;0.30;;
12725;SDS011;6427;49.754;6.106;2023-12-22T13:35:55;1.67;;;0.33;;
12725;SDS011;6427;49.754;6.106;2023-12-22T13:38:21;0.93;;;0.20;;
12725;SDS011;6427;49.754;6.106;2023-12-22T13:40:49;1.13;;;0.23;;
12725;SDS011;6427;49.754;6.106;2023-12-22T13:43:16;0.63;;;0.40;;
12725;SDS011;6427;49.754;6.106;2023-12-22T13:45:44;1.67;;;0.33;;
12725;SDS011;6427;49.754;6.106;2023-12-22T13:48:11;1.20;;;0.30;;
12725;SDS011;6427;49.754;6.106;2023-12-22T13:50:39;0.67;;;0.20;;
12725;SDS011;6427;49.754;6.106;2023-12-22T13:53:08;0.83;;;0.30;;
12725;SDS011;6427;49.754;6.106;2023-12-22T13:55:35;1.77;;;0.40;;
12725;SDS011;6427;49.754;6.106;2023-12-22T13:58:03;1.70;;;0.50;;
12725;SDS011;6427;49.754;6.106;2023-12-22T14:00:31;0.50;;;0.40;;
12725;SDS011;6427;49.754;6.106;2023-12-22T14:02:58;1.03;;;0.33;;
12725;SDS011;6427;49.754;6.106;2023-12-22T14:05:27;1.10;;;0.30;;
12725;SDS011;6427;49.754;6.106;2023-12-22T14:07:54;2.63;;;0.50;;
12725;SDS011;6427;49.754;6.106;2023-12-22T14:10:22;2.43;;;0.73;;
12725;SDS011;6427;49.754;6.106;2023-12-22T14:12:50;1.77;;;0.40;;
12725;SDS011;6427;49.754;6.106;2023-12-22T14:15:18;1.75;;;0.60;;
12725;SDS011;6427;49.754;6.106;2023-12-22T14:17:45;1.13;;;0.47;;
12725;SDS011;6427;49.754;6.106;2023-12-22T14:20:13;3.43;;;0.90;;
12725;SDS011;6427;49.754;6.106;2023-12-22T14:22:41;3.77;;;0.70;;
12725;SDS011;6427;49.754;6.106;2023-12-22T14:25:08;1.10;;;0.47;;
12725;SDS011;6427;49.754;6.106;2023-12-22T14:27:37;1.27;;;0.73;;
12725;SDS011;6427;49.754;6.106;2023-12-22T14:30:04;2.40;;;0.50;;
12725;SDS011;6427;49.754;6.106;2023-12-22T14:32:32;1.80;;;0.73;;
12725;SDS011;6427;49.754;6.106;2023-12-22T14:35:00;2.70;;;0.97;;
12725;SDS011;6427;49.754;6.106;2023-12-22T14:37:27;3.67;;;0.57;;
12725;SDS011;6427;49.754;6.106;2023-12-22T14:39:56;0.95;;;0.50;;
12725;SDS011;6427;49.754;6.106;2023-12-22T14:42:23;2.13;;;0.50;;
12725;SDS011;6427;49.754;6.106;2023-12-22T14:44:51;2.03;;;1.00;;
12725;SDS011;6427;49.754;6.106;2023-12-22T14:47:18;1.73;;;0.63;;
12725;SDS011;6427;49.754;6.106;2023-12-22T14:49:46;2.97;;;0.93;;
12725;SDS011;6427;49.754;6.106;2023-12-22T14:52:14;2.83;;;1.30;;
12725;SDS011;6427;49.754;6.106;2023-12-22T14:54:41;2.23;;;1.20;;
12725;SDS011;6427;49.754;6.106;2023-12-22T14:57:10;2.87;;;0.87;;
12725;SDS011;6427;49.754;6.106;2023-12-22T14:59:37;2.80;;;0.80;;
12725;SDS011;6427;49.754;6.106;2023-12-22T15:02:05;5.83;;;2.10;;
12725;SDS011;6427;49.754;6.106;2023-12-22T15:04:32;3.13;;;1.70;;
12725;SDS011;6427;49.754;6.106;2023-12-22T15:07:01;1.23;;;0.73;;